Time;durP1;ratioP1;P1;durP2;ratioP2;P2;SDS_P1;SDS_P2;PMS_P1;PMS_P2;Temp;Humidity;BMP_temperature;BMP_pressure;BME280_temperature;BME280_humidity;BME280_pressure;Samples;Min_cycle;Max_cycle;Signal;HPM_P1;HPM_P2
2022/07/17 00:02:54;;;;;;;8.32;6.97;;;;;;;17.26;79.93;98034.47;10375347;28;20479;-56
2022/07/17 00:07:53;;;;;;;8.70;7.25;;;;;;;17.14;79.82;98027.75;10375658;28;20397;-55
2022/07/17 00:12:52;;;;;;;;;;;;;;;17.14;79.68;98038.22;10370360;28;20062;-55
2022/07/17 00:17:51;;;;;;;10.87;7.47;;;;;;;17.18;79.61;98036.38;10375435;28;19934;-56
2022/07/17 00:22:51;;;;;;;;;;;;;;;17.18;79.57;98035.53;10375521;28;20061;-55
2022/07/17 00:27:50;;;;;;;9.38;6.90;;;;;;;17.08;80.84;98038.34;10374144;28;19948;-55
2022/07/17 00:32:49;;;;;;;10.13;7.13;;;;;;;17.09;80.50;98033.97;10374069;28;20064;-55
2022/07/17 00:37:48;;;;;;;10.77;7.10;;;;;;;17.05;80.99;98042.78;10374795;28;20053;-55
2022/07/17 00:42:48;;;;;;;8.48;7.00;;;;;;;16.99;81.63;98056.06;10368555;28;20607;-55
2022/07/17 00:48:01;;;;;;;10.43;7.25;;;;;;;16.84;82.18;98065.09;10374145;28;20485;-55
2022/07/17 00:53:01;;;;;;;12.90;7.50;;;;;;;16.72;82.67;98050.47;10373569;28;20065;-55
2022/07/17 00:58:03;;;;;;;10.23;7.50;;;;;;;16.67;82.30;98041.84;10373152;28;20061;-55
2022/07/17 01:03:03;;;;;;;11.38;8.10;;;;;;;16.76;82.14;98065.22;10373048;28;20063;-55
2022/07/17 01:08:02;;;;;;;11.38;8.05;;;;;;;16.76;82.38;98064.38;10372957;28;20076;-55
2022/07/17 01:13:02;;;;;;;13.20;9.30;;;;;;;16.74;82.46;98064.41;10369918;28;20072;-55
2022/07/17 01:18:07;;;;;;;12.65;9.95;;;;;;;16.72;83.22;98066.19;10373034;28;20060;-55
2022/07/17 01:23:06;;;;;;;12.73;10.05;;;;;;;16.62;83.29;98046.31;10372297;28;20154;-55
2022/07/17 01:28:05;;;;;;;13.57;9.63;;;;;;;16.70;83.38;98065.38;10371610;28;20068;-55
2022/07/17 01:33:04;;;;;;;12.20;8.82;;;;;;;16.71;83.63;98059.22;10371919;28;20487;-55
2022/07/17 01:38:03;;;;;;;11.63;8.88;;;;;;;16.69;83.55;98072.34;10372774;28;20463;-55
2022/07/17 01:43:02;;;;;;;;;;;;;;;16.67;84.00;98068.03;10372056;28;20049;-55
2022/07/17 01:48:01;;;;;;;10.90;8.30;;;;;;;16.68;84.09;98067.16;10371940;28;19916;-55
2022/07/17 01:53:00;;;;;;;;;;;;;;;16.57;85.10;98070.00;10372675;28;20044;-55
2022/07/17 01:57:59;;;;;;;11.63;7.80;;;;;;;16.43;85.43;98065.03;10371659;28;19912;-55
2022/07/17 02:02:58;;;;;;;;;;;;;;;16.46;84.91;98074.56;10371599;28;20500;-55
2022/07/17 02:07:57;;;;;;;14.43;11.27;;;;;;;16.36;85.28;98073.91;10371775;28;19944;-55
2022/07/17 02:12:57;;;;;;;17.08;12.52;;;;;;;16.22;86.38;98089.00;10371073;28;20547;-55
2022/07/17 02:17:56;;;;;;;14.30;11.23;;;;;;;16.14;87.01;98083.91;10371891;28;20472;-55
2022/07/17 02:22:55;;;;;;;14.30;11.48;;;;;;;16.06;87.48;98097.13;10371008;28;20048;-55
2022/07/17 02:27:54;;;;;;;;;;;;;;;16.07;86.84;98098.00;10372365;28;20031;-55
2022/07/17 02:32:53;;;;;;;11.18;7.47;;;;;;;16.10;86.54;98092.72;10374384;28;19909;-55
2022/07/17 02:37:52;;;;;;;;;;;;;;;16.11;85.94;98096.19;10379966;28;20055;-55
2022/07/17 02:42:50;;;;;;;13.68;8.50;;;;;;;16.05;85.58;98098.03;10382035;28;19908;-55
2022/07/17 02:47:49;;;;;;;;;;;;;;;16.01;85.67;98092.88;10382573;28;20021;-55
2022/07/17 02:52:49;;;;;;;9.95;7.72;;;;;;;15.97;85.71;98094.66;10382527;28;20392;-55
2022/07/17 02:57:48;;;;;;;9.88;7.90;;;;;;;15.86;86.14;98115.78;10350953;28;20084;-55
2022/07/17 03:02:47;;;;;;;;;;;;;;;15.50;88.40;98116.34;10340897;28;20100;-55
2022/07/17 03:07:46;;;;;;;11.30;9.10;;;;;;;15.48;87.93;98118.97;10341205;28;19980;-55
2022/07/17 03:12:44;;;;;;;;;;;;;;;15.43;87.53;98131.25;10358400;28;20037;-55
2022/07/17 03:17:43;;;;;;;14.73;10.32;;;;;;;15.40;87.63;98128.69;10381201;28;19908;-55
2022/07/17 03:22:42;;;;;;;14.80;11.05;;;;;;;15.39;87.89;98119.97;10377760;28;20021;-55
2022/07/17 03:27:41;;;;;;;16.00;12.68;;;;;;;15.41;87.55;98139.13;10339018;28;20032;-55
2022/07/17 03:32:40;;;;;;;;;;;;;;;15.43;87.92;98157.41;10337087;28;20103;-55
2022/07/17 03:37:39;;;;;;;15.63;12.98;;;;;;;15.44;87.91;98148.69;10335562;28;19920;-55
2022/07/17 03:42:38;;;;;;;;;;;;;;;15.51;87.51;98149.47;10336310;28;20064;-55
2022/07/17 03:47:37;;;;;;;14.73;10.90;;;;;;;15.57;87.93;98144.97;10334907;28;19901;-55
2022/07/17 03:52:36;;;;;;;;;;;;;;;15.64;87.71;98146.63;10335479;28;20044;-55
2022/07/17 03:57:35;;;;;;;12.07;8.85;;;;;;;15.73;87.70;98143.00;10363718;28;20296;-55
2022/07/17 04:02:34;;;;;;;13.05;9.30;;;;;;;15.83;87.76;98151.59;10375216;28;20440;-55
2022/07/17 04:07:33;;;;;;;;;;;;;;;15.77;88.53;98156.91;10376356;28;20040;-55
2022/07/17 04:12:32;;;;;;;14.35;8.95;;;;;;;15.92;88.39;98161.06;10375365;28;20504;-55
2022/07/17 04:17:31;;;;;;;19.25;13.60;;;;;;;15.93;88.29;98162.78;10375384;28;20511;-55
2022/07/17 04:22:29;;;;;;;;;;;;;;;15.79;88.54;98170.88;10375708;28;20127;-55
2022/07/17 04:27:28;;;;;;;26.57;13.97;;;;;;;15.76;88.71;98176.09;10374620;28;19908;-55
2022/07/17 04:32:27;;;;;;;;;;;;;;;15.78;88.97;98184.81;10375758;28;20043;-55
2022/07/17 04:37:26;;;;;;;18.75;13.65;;;;;;;15.83;88.92;98183.00;10374432;28;19983;-55
2022/07/17 04:42:25;;;;;;;;;;;;;;;15.99;88.87;98194.97;10374606;28;20031;-55
2022/07/17 04:47:24;;;;;;;19.35;13.38;;;;;;;16.22;88.43;98202.47;10374483;28;20359;-55
2022/07/17 04:52:22;;;;;;;;;;;;;;;16.36;88.17;98204.84;10374660;28;20071;-55
2022/07/17 04:57:21;;;;;;;14.93;12.52;;;;;;;16.62;87.37;98207.00;10373172;28;19913;-55
2022/07/17 05:02:20;;;;;;;;;;;;;;;16.86;86.69;98210.09;10373703;28;20056;-55
2022/07/17 05:07:19;;;;;;;13.53;10.53;;;;;;;17.10;85.55;98200.91;10372686;28;20014;-55
2022/07/17 05:12:18;;;;;;;;;;;;;;;17.32;84.86;98202.19;10373246;28;20052;-55
2022/07/17 05:17:17;;;;;;;15.00;11.30;;;;;;;17.59;83.77;98199.88;10373534;28;20012;-56
2022/07/17 05:22:16;;;;;;;16.00;11.27;;;;;;;17.66;83.20;98204.09;10372575;28;20023;-55
2022/07/17 05:27:15;;;;;;;15.38;11.38;;;;;;;17.89;82.10;98194.84;10369462;28;20544;-56
2022/07/17 05:32:14;;;;;;;16.20;11.30;;;;;;;18.10;81.83;98194.31;10369187;28;20036;-56
2022/07/17 05:37:13;;;;;;;;;;;;;;;18.31;80.36;98206.06;10370237;28;20078;-55
2022/07/17 05:42:12;;;;;;;17.13;11.15;;;;;;;18.52;80.05;98201.16;10370806;28;19952;-55
2022/07/17 05:47:11;;;;;;;13.55;9.63;;;;;;;18.65;78.09;98213.09;10370764;28;20079;-55
2022/07/17 05:52:10;;;;;;;13.63;10.45;;;;;;;18.83;77.93;98217.06;10369592;28;20056;-55
2022/07/17 05:57:09;;;;;;;15.00;10.15;;;;;;;18.90;77.09;98202.84;10344584;28;20056;-55
2022/07/17 06:02:08;;;;;;;10.77;9.45;;;;;;;19.20;77.18;98210.75;10358859;28;20032;-55
2022/07/17 06:07:07;;;;;;;10.80;9.00;;;;;;;19.56;75.32;98205.38;10371129;28;20041;-56
2022/07/17 06:12:06;;;;;;;11.73;8.38;;;;;;;19.82;74.92;98208.06;10376525;28;20412;-55
2022/07/17 06:17:05;;;;;;;10.93;8.13;;;;;;;20.10;73.16;98208.97;10379689;28;20061;-56
2022/07/17 06:22:04;;;;;;;16.55;8.63;;;;;;;20.43;71.65;98207.03;10379878;28;20025;-56
2022/07/17 06:27:03;;;;;;;11.52;8.18;;;;;;;20.73;69.61;98204.22;10374413;28;20053;-56
2022/07/17 06:32:02;;;;;;;14.00;8.23;;;;;;;21.00;68.00;98213.81;10379523;28;20037;-56
2022/07/17 06:37:01;;;;;;;9.20;7.45;;;;;;;21.30;65.89;98195.19;10378582;28;20073;-56
2022/07/17 06:42:00;;;;;;;10.07;7.38;;;;;;;21.54;64.62;98196.03;10377296;28;20411;-56
2022/07/17 06:47:00;;;;;;;10.63;7.32;;;;;;;21.91;63.76;98197.22;10342179;28;20387;-56
2022/07/17 06:51:59;;;;;;;9.95;6.60;;;;;;;22.12;58.81;98193.75;10337802;28;20137;-57
2022/07/17 06:56:58;;;;;;;10.05;5.45;;;;;;;22.39;54.27;98188.28;10337863;28;20108;-56
2022/07/17 07:01:57;;;;;;;6.75;5.20;;;;;;;22.72;54.03;98191.25;10337955;28;20021;-56
2022/07/17 07:06:56;;;;;;;10.35;5.25;;;;;;;23.03;52.57;98189.94;10339312;28;20480;-56
2022/07/17 07:11:55;;;;;;;6.35;4.47;;;;;;;23.35;50.84;98187.59;10351150;28;20037;-56
2022/07/17 07:16:54;;;;;;;8.15;5.05;;;;;;;23.53;48.09;98189.44;10378654;28;20583;-56
2022/07/17 07:21:53;;;;;;;8.38;5.00;;;;;;;23.64;47.69;98189.81;10378186;28;20095;-56
2022/07/17 07:26:51;;;;;;;6.97;4.60;;;;;;;23.86;47.68;98188.78;10375648;28;20033;-56
2022/07/17 07:32:27;;;;;;;6.50;4.35;;;;;;;23.96;46.71;98202.44;10376197;28;20400;-57
2022/07/17 07:37:26;;;;;;;7.65;4.47;;;;;;;24.19;45.47;98193.41;10376761;28;20499;-57
2022/07/17 07:42:26;;;;;;;5.93;4.47;;;;;;;24.32;44.79;98205.13;10376786;28;20575;-56
2022/07/17 07:47:25;;;;;;;5.45;4.32;;;;;;;24.45;44.70;98200.94;10376212;28;20079;-56
2022/07/17 07:52:24;;;;;;;6.95;4.28;;;;;;;24.43;45.37;98192.19;10375885;28;20064;-56
2022/07/17 07:57:23;;;;;;;6.13;3.97;;;;;;;24.57;44.48;98198.59;10376366;28;20120;-56
2022/07/17 08:02:22;;;;;;;4.93;3.75;;;;;;;24.64;43.44;98202.66;10375658;28;20033;-56
2022/07/17 08:07:21;;;;;;;5.55;3.95;;;;;;;24.90;43.83;98198.69;10375651;28;20028;-56
2022/07/17 08:12:21;;;;;;;6.85;4.30;;;;;;;25.17;43.53;98193.69;10375976;28;20056;-56
2022/07/17 08:17:20;;;;;;;6.75;3.83;;;;;;;25.25;42.43;98202.13;10372514;28;20052;-56
2022/07/17 08:22:19;;;;;;;5.30;3.83;;;;;;;25.26;41.50;98187.91;10375061;28;20542;-56
2022/07/17 08:27:19;;;;;;;5.70;3.88;;;;;;;25.45;40.55;98187.75;10375212;28;20064;-56
2022/07/17 08:32:18;;;;;;;5.13;3.35;;;;;;;25.54;39.56;98194.41;10374570;28;20025;-56
2022/07/17 08:37:17;;;;;;;3.78;3.38;;;;;;;25.63;37.61;98183.28;10373881;28;20024;-56
2022/07/17 08:42:16;;;;;;;5.63;3.30;;;;;;;25.74;35.65;98174.72;10374525;28;20032;-56
2022/07/17 08:47:15;;;;;;;5.38;3.83;;;;;;;25.87;38.74;98190.81;10374545;28;20068;-56
2022/07/17 08:52:15;;;;;;;6.38;3.72;;;;;;;26.07;38.33;98169.28;10373493;28;20061;-56
2022/07/17 08:57:14;;;;;;;5.38;3.25;;;;;;;26.22;35.12;98172.00;10352157;28;20075;-56
2022/07/17 09:02:13;;;;;;;5.15;3.45;;;;;;;26.12;34.40;98175.19;10374109;28;20013;-56
2022/07/17 09:07:12;;;;;;;4.82;3.40;;;;;;;26.37;33.13;98173.78;10373919;28;20028;-56
2022/07/17 09:12:11;;;;;;;4.00;3.20;;;;;;;26.52;32.37;98175.53;10373575;28;20580;-56
2022/07/17 09:17:11;;;;;;;4.95;3.15;;;;;;;26.53;32.44;98171.06;10372919;28;20439;-56
2022/07/17 09:22:16;;;;;;;5.18;3.22;;;;;;;26.65;32.98;98169.47;10372929;28;20065;-56
2022/07/17 09:27:29;;;;;;;4.93;3.25;;;;;;;26.71;32.96;98177.09;10371572;28;20057;-56
2022/07/17 09:32:30;;;;;;;5.63;3.08;;;;;;;26.59;33.15;98173.38;10372325;28;20067;-56
2022/07/17 09:37:31;;;;;;;3.58;3.17;;;;;;;26.66;32.88;98176.53;10372115;28;20068;-56
2022/07/17 09:42:32;;;;;;;5.35;3.15;;;;;;;26.67;33.27;98178.22;10372155;28;20056;-56
2022/07/17 09:47:33;;;;;;;5.47;3.47;;;;;;;26.74;32.95;98174.25;10371537;28;20147;-56
2022/07/17 09:52:35;;;;;;;5.70;3.33;;;;;;;26.67;33.59;98167.56;10371672;28;20441;-56
2022/07/17 09:57:35;;;;;;;5.05;3.22;;;;;;;27.01;32.73;98165.59;10343157;28;20065;-56
2022/07/17 10:02:34;;;;;;;4.75;3.58;;;;;;;27.13;34.89;98181.66;10331129;28;20079;-56
2022/07/17 10:07:33;;;;;;;4.40;3.28;;;;;;;27.37;33.95;98173.91;10330724;28;20035;-56
2022/07/17 10:12:33;;;;;;;5.40;3.72;;;;;;;27.47;33.84;98181.38;10346737;28;20429;-56
2022/07/17 10:17:32;;;;;;;5.63;3.78;;;;;;;27.32;34.31;98169.84;10371851;28;20099;-56
2022/07/17 10:22:42;;;;;;;4.63;3.40;;;;;;;27.65;33.44;98160.69;10371155;28;20049;-56
2022/07/17 10:27:55;;;;;;;4.38;3.70;;;;;;;27.75;33.84;98156.47;10336649;28;20120;-56
2022/07/17 10:32:58;;;;;;;6.00;3.97;;;;;;;27.96;33.69;98152.44;10331041;28;20520;-55
2022/07/17 10:38:10;;;;;;;8.75;3.80;;;;;;;28.05;33.34;98142.94;10330303;28;20075;-56
2022/07/17 10:43:10;;;;;;;5.32;3.83;;;;;;;28.10;33.22;98140.84;10329995;28;20057;-56
2022/07/17 10:48:19;;;;;;;3.88;3.35;;;;;;;27.98;32.03;98141.63;10330237;28;20461;-56
2022/07/17 10:53:26;;;;;;;4.35;3.55;;;;;;;27.76;32.51;98128.88;10329884;28;20073;-56
2022/07/17 10:58:32;;;;;;;4.65;3.55;;;;;;;28.08;32.72;98125.91;10369666;28;20068;-55
2022/07/17 11:03:45;;;;;;;5.72;3.42;;;;;;;28.31;32.49;98125.22;10377999;28;20064;-56
2022/07/17 11:08:45;;;;;;;4.90;3.45;;;;;;;28.37;33.12;98137.31;10378260;28;20076;-56
2022/07/17 11:13:44;;;;;;;5.93;3.78;;;;;;;28.57;32.18;98122.59;10379227;28;20060;-57
2022/07/17 11:18:49;;;;;;;5.20;3.50;;;;;;;28.45;31.92;98108.25;10377578;28;20094;-56
2022/07/17 11:23:56;;;;;;;5.18;3.28;;;;;;;28.39;32.78;98111.38;10377298;28;20052;-57
2022/07/17 11:28:56;;;;;;;6.72;3.85;;;;;;;28.72;33.59;98099.34;10376840;28;20071;-57
2022/07/17 11:33:58;;;;;;;4.03;3.28;;;;;;;28.75;32.31;98099.13;10376903;28;20358;-57
2022/07/17 11:38:59;;;;;;;4.82;3.25;;;;;;;28.64;33.10;98105.19;10376909;28;20073;-57
2022/07/17 11:43:58;;;;;;;4.47;3.40;;;;;;;28.72;31.99;98104.69;10377062;28;20071;-57
2022/07/17 11:48:57;;;;;;;6.50;3.55;;;;;;;28.87;32.34;98082.25;10375275;28;20450;-57
2022/07/17 11:54:03;;;;;;;5.85;3.70;;;;;;;29.17;31.43;98086.38;10376880;28;20076;-57
2022/07/17 11:59:03;;;;;;;7.47;3.80;;;;;;;28.77;32.20;98092.72;10334993;28;20481;-57
2022/07/17 12:04:02;;;;;;;5.65;3.13;;;;;;;28.88;32.06;98074.13;10334503;28;20064;-57
2022/07/17 12:09:01;;;;;;;4.25;3.15;;;;;;;28.97;31.18;98080.66;10334040;28;20060;-57
2022/07/17 12:14:06;;;;;;;4.45;3.22;;;;;;;28.94;32.81;98067.47;10362344;28;20035;-57
2022/07/17 12:19:11;;;;;;;4.32;3.30;;;;;;;29.28;32.31;98057.94;10374572;28;20472;-57
2022/07/17 12:24:12;;;;;;;7.97;3.72;;;;;;;29.03;31.79;98064.16;10372247;28;20069;-55
2022/07/17 12:29:11;;;;;;;4.05;3.25;;;;;;;29.05;32.00;98059.56;10334480;28;20096;-57
2022/07/17 12:34:10;;;;;;;3.75;3.13;;;;;;;29.10;32.59;98053.88;10331830;28;20041;-57
2022/07/17 12:39:09;;;;;;;3.97;3.22;;;;;;;29.26;31.72;98046.50;10333227;28;20591;-55
2022/07/17 12:44:08;;;;;;;5.05;3.80;;;;;;;29.47;31.08;98054.75;10333889;28;20453;-57
2022/07/17 12:49:07;;;;;;;5.20;3.47;;;;;;;29.53;31.80;98044.56;10332996;28;20456;-57
2022/07/17 12:54:06;;;;;;;3.92;3.33;;;;;;;29.54;30.42;98041.81;10339651;28;20498;-57
2022/07/17 12:59:05;;;;;;;6.10;3.63;;;;;;;29.36;31.11;98041.31;10374118;28;20432;-58
2022/07/17 13:04:04;;;;;;;4.78;3.63;;;;;;;29.43;31.21;98023.88;10373994;28;20049;-56
2022/07/17 13:09:03;;;;;;;6.13;3.17;;;;;;;29.55;31.23;98035.47;10373013;28;20040;-56
2022/07/17 13:14:02;;;;;;;5.07;3.10;;;;;;;29.58;30.01;98021.00;10374112;28;20068;-56
2022/07/17 13:19:01;;;;;;;3.85;3.40;;;;;;;29.63;30.76;98026.91;10374899;28;20024;-56
2022/07/17 13:24:00;;;;;;;6.25;3.90;;;;;;;29.47;30.64;98022.69;10374850;28;20032;-56
2022/07/17 13:29:00;;;;;;;6.28;3.47;;;;;;;29.40;31.50;98025.94;10376417;28;20500;-56
2022/07/17 13:33:59;;;;;;;4.43;3.40;;;;;;;29.62;31.19;98022.50;10378350;28;20072;-56
2022/07/17 13:38:58;;;;;;;4.93;3.28;;;;;;;29.46;31.50;98031.69;10374949;28;20083;-55
2022/07/17 13:43:59;;;;;;;5.50;3.42;;;;;;;29.26;31.88;98003.72;10375613;28;20120;-56
2022/07/17 13:48:58;;;;;;;5.00;3.60;;;;;;;29.43;31.07;98015.00;10375215;28;20067;-56
2022/07/17 13:53:57;;;;;;;6.00;3.78;;;;;;;29.47;31.44;98016.50;10375173;28;20061;-56
2022/07/17 13:58:56;;;;;;;5.25;3.47;;;;;;;29.42;31.13;98018.66;10375181;28;20076;-56
2022/07/17 14:03:55;;;;;;;5.68;3.80;;;;;;;29.43;31.17;98006.97;10375265;28;20025;-56
2022/07/17 14:08:54;;;;;;;4.43;3.40;;;;;;;29.53;30.67;98015.16;10374657;28;20060;-56
2022/07/17 14:13:53;;;;;;;4.65;3.50;;;;;;;29.53;30.68;98013.34;10375113;28;20036;-57
2022/07/17 14:18:59;;;;;;;6.43;3.80;;;;;;;29.71;30.67;98008.44;10374580;28;20120;-57
2022/07/17 14:23:58;;;;;;;5.40;3.40;;;;;;;29.50;30.22;98017.09;10374554;28;20057;-57
2022/07/17 14:28:59;;;;;;;5.30;3.40;;;;;;;29.29;31.32;98013.34;10373754;28;20419;-57
2022/07/17 14:33:57;;;;;;;6.50;4.60;;;;;;;29.20;31.43;98005.97;10373267;28;20479;-57
2022/07/17 14:38:56;;;;;;;4.03;3.40;;;;;;;29.20;31.24;98019.31;10370892;28;20417;-57
2022/07/17 14:43:56;;;;;;;5.00;3.28;;;;;;;28.99;31.03;98008.38;10374790;28;20049;-57
2022/07/17 14:48:55;;;;;;;6.07;3.50;;;;;;;29.08;31.06;98008.56;10377811;28;20226;-56
2022/07/17 14:53:54;;;;;;;5.28;3.05;;;;;;;28.97;30.91;98003.16;10376112;28;20087;-56
2022/07/17 14:58:53;;;;;;;4.90;3.47;;;;;;;28.95;30.61;98002.41;10377498;28;20094;-56
2022/07/17 15:03:52;;;;;;;3.72;3.15;;;;;;;28.95;29.53;98005.09;10377410;28;20140;-56
2022/07/17 15:08:51;;;;;;;3.20;2.90;;;;;;;28.84;28.96;98005.84;10378736;28;20166;-56
2022/07/17 15:13:50;;;;;;;4.47;3.20;;;;;;;28.74;28.57;97990.59;10373573;28;20156;-56
2022/07/17 15:18:49;;;;;;;5.35;3.13;;;;;;;28.61;29.51;98001.25;10375120;28;20045;-56
2022/07/17 15:23:48;;;;;;;4.97;3.30;;;;;;;28.30;29.58;97995.41;10377292;28;20068;-57
2022/07/17 15:28:47;;;;;;;6.68;3.00;;;;;;;28.08;30.20;97996.06;10358998;28;20037;-56
2022/07/17 15:33:46;;;;;;;4.47;3.03;;;;;;;27.77;30.56;97999.91;10374872;28;20071;-56
2022/07/17 15:38:46;;;;;;;5.55;3.50;;;;;;;27.81;30.08;97994.25;10375756;28;20077;-56
2022/07/17 15:43:45;;;;;;;7.10;3.30;;;;;;;28.02;30.57;97991.09;10375155;28;20067;-56
2022/07/17 15:48:45;;;;;;;4.18;2.90;;;;;;;27.99;30.14;97993.97;10375628;28;20124;-56
2022/07/17 15:53:44;;;;;;;4.40;2.75;;;;;;;27.93;29.90;97991.72;10375607;28;20198;-56
2022/07/17 15:58:43;;;;;;;3.83;2.80;;;;;;;27.63;30.24;97992.81;10376459;28;20120;-56
2022/07/17 16:03:42;;;;;;;4.40;3.08;;;;;;;27.53;30.40;98000.56;10375025;28;20059;-56
2022/07/17 16:08:41;;;;;;;6.20;3.10;;;;;;;27.61;30.26;98002.72;10375732;28;20152;-56
2022/07/17 16:13:40;;;;;;;4.80;3.17;;;;;;;27.60;29.69;98006.38;10374001;28;20107;-56
2022/07/17 16:18:39;;;;;;;5.40;3.08;;;;;;;27.57;29.89;98009.25;10375118;28;20031;-56
2022/07/17 16:23:38;;;;;;;48.38;12.68;;;;;;;27.37;29.25;98019.34;10374738;28;20072;-56
2022/07/17 16:28:37;;;;;;;7.35;3.58;;;;;;;27.25;28.60;98025.50;10374411;28;20065;-56
2022/07/17 16:33:36;;;;;;;4.00;3.03;;;;;;;27.28;29.14;98024.44;10374632;28;20128;-56
2022/07/17 16:38:35;;;;;;;3.92;2.83;;;;;;;27.26;29.00;98027.22;10373932;28;20088;-56
2022/07/17 16:43:34;;;;;;;4.35;2.85;;;;;;;27.30;28.86;98023.38;10374132;28;20029;-56
2022/07/17 16:48:33;;;;;;;3.55;2.78;;;;;;;27.35;28.95;98031.94;10374659;28;20446;-56
2022/07/17 16:53:32;;;;;;;5.55;2.88;;;;;;;27.36;28.73;98036.31;10373094;28;20072;-56
2022/07/17 16:58:31;;;;;;;6.53;3.78;;;;;;;27.23;29.21;98038.06;10373073;28;20029;-56
2022/07/17 17:03:30;;;;;;;12.35;5.07;;;;;;;26.98;29.37;98036.97;10373564;28;20075;-56
2022/07/17 17:08:29;;;;;;;5.75;3.13;;;;;;;26.62;29.56;98039.22;10371965;28;20112;-56
2022/07/17 17:13:28;;;;;;;6.32;3.65;;;;;;;26.40;30.51;98042.38;10369524;28;20507;-56
2022/07/17 17:18:27;;;;;;;4.07;2.83;;;;;;;26.01;31.19;98051.75;10374287;28;20029;-56
2022/07/17 17:23:26;;;;;;;3.63;2.50;;;;;;;25.91;31.55;98049.63;10373344;28;20041;-56
2022/07/17 17:28:25;;;;;;;6.50;2.97;;;;;;;25.61;31.22;98070.88;10372455;28;20491;-56
2022/07/17 17:33:24;;;;;;;3.25;2.70;;;;;;;25.42;31.71;98060.41;10371882;28;20083;-56
2022/07/17 17:38:23;;;;;;;4.72;3.03;;;;;;;25.33;32.09;98066.22;10371371;28;20076;-56
2022/07/17 17:43:22;;;;;;;3.40;2.80;;;;;;;25.19;32.64;98074.13;10372881;28;20480;-56
2022/07/17 17:48:21;;;;;;;5.32;3.20;;;;;;;25.10;32.89;98080.78;10372148;28;20061;-56
2022/07/17 17:53:21;;;;;;;4.95;2.97;;;;;;;25.01;33.08;98094.56;10371644;28;20413;-56
2022/07/17 17:58:20;;;;;;;5.00;3.20;;;;;;;24.92;33.31;98103.00;10371838;28;20769;-56
2022/07/17 18:03:19;;;;;;;6.97;3.15;;;;;;;24.69;33.85;98107.75;10370612;28;20064;-55
2022/07/17 18:08:18;;;;;;;5.28;3.03;;;;;;;24.37;34.00;98110.25;10374394;28;20028;-56
2022/07/17 18:13:17;;;;;;;5.20;3.25;;;;;;;24.22;34.21;98116.38;10379147;28;20414;-56
2022/07/17 18:18:16;;;;;;;5.60;3.63;;;;;;;24.08;34.79;98129.44;10379666;28;20076;-56
2022/07/17 18:23:15;;;;;;;7.68;3.67;;;;;;;23.88;34.65;98136.56;10378787;28;20064;-56
2022/07/17 18:28:14;;;;;;;9.23;3.58;;;;;;;23.70;34.45;98142.75;10379137;28;20032;-56
2022/07/17 18:33:13;;;;;;;7.13;3.42;;;;;;;23.49;34.47;98156.09;10378997;28;20055;-56
2022/07/17 18:38:12;;;;;;;6.15;3.08;;;;;;;23.48;34.40;98164.97;10370132;28;20069;-56
2022/07/17 18:43:11;;;;;;;5.53;3.00;;;;;;;23.37;34.88;98172.50;10375601;28;20348;-55
2022/07/17 18:48:10;;;;;;;6.88;3.38;;;;;;;23.27;35.13;98177.38;10357681;28;20506;-56
2022/07/17 18:53:11;;;;;;;6.38;2.85;;;;;;;23.08;35.73;98187.94;10378317;28;20064;-56
2022/07/17 18:58:10;;;;;;;9.02;3.45;;;;;;;22.93;35.76;98196.56;10377813;28;20504;-56
2022/07/17 19:03:09;;;;;;;6.85;2.90;;;;;;;22.76;35.24;98192.00;10376738;28;20528;-55
2022/07/17 19:08:08;;;;;;;8.43;3.40;;;;;;;22.58;35.64;98204.22;10374889;28;20040;-56
2022/07/17 19:13:07;;;;;;;7.55;3.17;;;;;;;22.43;35.85;98223.38;10376153;28;20068;-56
2022/07/17 19:18:06;;;;;;;6.00;3.63;;;;;;;22.27;38.11;98226.66;10377500;28;20053;-56
2022/07/17 19:23:05;;;;;;;6.13;4.03;;;;;;;22.06;39.08;98227.50;10356538;28;20431;-56
2022/07/17 19:28:04;;;;;;;6.03;4.15;;;;;;;21.79;39.59;98219.72;10370141;28;20083;-55
2022/07/17 19:33:03;;;;;;;4.68;3.50;;;;;;;21.67;39.96;98243.97;10373771;28;20073;-55
2022/07/17 19:38:02;;;;;;;6.32;3.75;;;;;;;21.47;40.46;98245.56;10374997;28;20507;-56
2022/07/17 19:43:01;;;;;;;5.57;3.42;;;;;;;21.29;40.96;98248.91;10377025;28;20624;-56
2022/07/17 19:48:00;;;;;;;6.20;3.40;;;;;;;21.08;41.29;98256.63;10373095;28;20052;-55
2022/07/17 19:53:00;;;;;;;5.53;3.22;;;;;;;20.91;41.37;98256.34;10353571;28;20076;-56
2022/07/17 19:58:00;;;;;;;4.32;3.30;;;;;;;20.66;41.05;98272.19;10351455;28;20148;-55
2022/07/17 20:02:59;;;;;;;5.93;3.42;;;;;;;20.45;40.16;98273.75;10354566;28;20024;-55
2022/07/17 20:07:58;;;;;;;9.35;3.80;;;;;;;20.28;40.18;98261.06;10346874;28;20041;-55
2022/07/17 20:12:56;;;;;;;7.28;3.85;;;;;;;20.17;39.58;98274.59;10344146;28;20033;-56
2022/07/17 20:17:55;;;;;;;5.15;3.78;;;;;;;20.03;41.05;98271.53;10350981;28;20121;-55
2022/07/17 20:22:54;;;;;;;6.55;3.95;;;;;;;19.95;41.77;98292.81;10375467;28;20552;-55
2022/07/17 20:27:53;;;;;;;7.55;3.53;;;;;;;19.77;42.72;98286.34;10374212;28;20119;-55
2022/07/17 20:32:52;;;;;;;6.15;3.53;;;;;;;19.64;43.18;98300.78;10373813;28;20271;-55
2022/07/17 20:37:51;;;;;;;7.78;3.13;;;;;;;19.49;42.78;98302.06;10374850;28;20052;-55
2022/07/17 20:42:50;;;;;;;4.75;2.75;;;;;;;19.36;42.38;98311.19;10374206;28;20033;-55
2022/07/17 20:47:49;;;;;;;5.57;2.85;;;;;;;19.22;42.11;98322.94;10373787;28;20029;-55
2022/07/17 20:52:48;;;;;;;6.22;2.70;;;;;;;19.07;42.24;98323.38;10374101;28;20021;-55
2022/07/17 20:57:47;;;;;;;4.72;3.20;;;;;;;18.89;42.28;98327.31;10343142;28;20029;-55
2022/07/17 21:02:46;;;;;;;3.78;2.70;;;;;;;18.67;42.51;98320.84;10338644;28;20027;-55
2022/07/17 21:07:45;;;;;;;5.00;2.63;;;;;;;18.56;42.18;98324.59;10351855;28;20073;-55
2022/07/17 21:12:44;;;;;;;6.05;2.53;;;;;;;18.34;42.07;98323.38;10351817;28;20040;-55
2022/07/17 21:17:44;;;;;;;3.95;2.40;;;;;;;18.17;42.10;98334.25;10351277;28;20061;-55
2022/07/17 21:22:43;;;;;;;3.13;2.50;;;;;;;17.97;41.93;98346.06;10349682;28;20045;-55
2022/07/17 21:27:42;;;;;;;5.38;2.67;;;;;;;17.86;42.41;98349.81;10351514;28;20140;-55
2022/07/17 21:32:42;;;;;;;5.90;2.92;;;;;;;17.68;43.63;98351.00;10349254;28;20174;-55
2022/07/17 21:37:41;;;;;;;3.78;2.50;;;;;;;17.50;42.63;98342.63;10351771;28;20140;-55
2022/07/17 21:42:40;;;;;;;6.75;2.28;;;;;;;17.40;42.67;98358.56;10347950;28;20048;-55
2022/07/17 21:47:39;;;;;;;5.95;2.42;;;;;;;17.28;42.79;98352.66;10350323;28;20072;-55
2022/07/17 21:52:38;;;;;;;4.50;2.03;;;;;;;17.22;43.16;98352.78;10348630;28;20056;-55
2022/07/17 21:57:37;;;;;;;5.22;2.17;;;;;;;17.07;43.17;98351.28;10356544;28;20036;-55
2022/07/17 22:02:37;;;;;;;5.47;2.40;;;;;;;16.87;42.80;98354.25;10367816;28;20190;-55
2022/07/17 22:07:36;;;;;;;5.50;2.50;;;;;;;16.82;44.64;98350.00;10364447;28;20068;-55
2022/07/17 22:12:36;;;;;;;5.07;2.60;;;;;;;16.70;45.36;98362.38;10366198;28;20073;-55
2022/07/17 22:17:36;;;;;;;5.03;2.63;;;;;;;16.49;46.52;98353.09;10366553;28;20059;-55
2022/07/17 22:22:36;;;;;;;5.85;2.72;;;;;;;16.38;47.46;98357.59;10373263;28;20079;-55
2022/07/17 22:27:35;;;;;;;5.10;2.60;;;;;;;16.07;49.16;98355.44;10365168;28;20565;-55
2022/07/17 22:32:35;;;;;;;4.38;2.75;;;;;;;15.98;48.94;98349.44;10353271;28;20168;-55
2022/07/17 22:37:34;;;;;;;7.88;3.10;;;;;;;15.86;49.72;98350.47;10365726;28;20069;-55
2022/07/17 22:42:33;;;;;;;;;;;;;;;15.81;49.91;98352.25;10372394;28;20047;-55
2022/07/17 22:47:31;;;;;;;5.53;2.60;;;;;;;15.76;49.85;98360.13;10371038;28;19913;-55
2022/07/17 22:52:30;;;;;;;4.13;2.67;;;;;;;15.66;49.67;98351.53;10372006;28;20148;-55
2022/07/17 22:57:29;;;;;;;;;;;;;;;15.47;49.59;98352.63;10378863;28;20032;-55
2022/07/17 23:02:28;;;;;;;3.28;2.00;;;;;;;15.28;49.95;98356.34;10378334;28;19931;-55
2022/07/17 23:07:27;;;;;;;;;;;;;;;15.14;50.23;98354.72;10379689;28;20084;-55
2022/07/17 23:12:26;;;;;;;3.30;2.00;;;;;;;14.93;50.36;98340.09;10377446;28;19913;-55
2022/07/17 23:17:25;;;;;;;5.45;2.35;;;;;;;14.88;50.57;98359.34;10378146;28;20056;-55
2022/07/17 23:22:24;;;;;;;2.90;1.92;;;;;;;14.76;50.87;98365.53;10378205;28;20028;-55